sensor_id;sensor_type;location;lat;lon;timestamp;temperature;humidity
18047;DHT22;9148;51.454;13.862;2023-09-19T00:00:34;16.30;99.90
18047;DHT22;9148;51.454;13.862;2023-09-19T00:03:01;16.20;99.90
18047;DHT22;9148;51.454;13.862;2023-09-19T00:05:27;16.20;99.90
18047;DHT22;9148;51.454;13.862;2023-09-19T00:07:58;16.20;99.90
18047;DHT22;9148;51.454;13.862;2023-09-19T00:10:28;16.20;99.90
18047;DHT22;9148;51.454;13.862;2023-09-19T00:12:57;16.20;99.90
18047;DHT22;9148;51.454;13.862;2023-09-19T00:15:25;16.20;99.90
18047;DHT22;9148;51.454;13.862;2023-09-19T00:17:54;16.10;99.90
18047;DHT22;9148;51.454;13.862;2023-09-19T00:20:21;16.10;99.90
18047;DHT22;9148;51.454;13.862;2023-09-19T00:22:49;16.10;99.90
18047;DHT22;9148;51.454;13.862;2023-09-19T00:25:19;16.10;99.90
18047;DHT22;9148;51.454;13.862;2023-09-19T00:27:45;16.10;99.90
18047;DHT22;9148;51.454;13.862;2023-09-19T00:30:13;16.10;99.90
18047;DHT22;9148;51.454;13.862;2023-09-19T00:32:46;16.00;99.90
18047;DHT22;9148;51.454;13.862;2023-09-19T00:35:31;16.00;99.90
18047;DHT22;9148;51.454;13.862;2023-09-19T00:37:58;16.00;99.90
18047;DHT22;9148;51.454;13.862;2023-09-19T00:40:24;16.00;99.90
18047;DHT22;9148;51.454;13.862;2023-09-19T00:42:51;16.00;99.90
18047;DHT22;9148;51.454;13.862;2023-09-19T00:45:17;16.00;99.90
18047;DHT22;9148;51.454;13.862;2023-09-19T00:47:50;15.90;99.90
18047;DHT22;9148;51.454;13.862;2023-09-19T00:50:18;16.00;99.90
18047;DHT22;9148;51.454;13.862;2023-09-19T00:52:46;15.90;99.90
18047;DHT22;9148;51.454;13.862;2023-09-19T00:55:14;15.90;99.90
18047;DHT22;9148;51.454;13.862;2023-09-19T00:57:41;15.90;99.90
18047;DHT22;9148;51.454;13.862;2023-09-19T01:00:08;15.90;99.90
18047;DHT22;9148;51.454;13.862;2023-09-19T01:02:44;15.80;99.90
18047;DHT22;9148;51.454;13.862;2023-09-19T01:05:13;15.80;99.90
18047;DHT22;9148;51.454;13.862;2023-09-19T01:07:39;15.80;99.90
18047;DHT22;9148;51.454;13.862;2023-09-19T01:10:12;15.80;99.90
18047;DHT22;9148;51.454;13.862;2023-09-19T01:16:10;15.80;99.90
18047;DHT22;9148;51.454;13.862;2023-09-19T01:21:57;15.70;99.90
18047;DHT22;9148;51.454;13.862;2023-09-19T01:30:40;15.70;99.90
18047;DHT22;9148;51.454;13.862;2023-09-19T01:33:09;15.70;99.90
18047;DHT22;9148;51.454;13.862;2023-09-19T01:35:38;15.70;99.90
18047;DHT22;9148;51.454;13.862;2023-09-19T01:38:07;15.70;99.90
18047;DHT22;9148;51.454;13.862;2023-09-19T01:40:41;15.70;99.90
18047;DHT22;9148;51.454;13.862;2023-09-19T01:43:16;15.70;99.90
18047;DHT22;9148;51.454;13.862;2023-09-19T01:46:14;15.70;99.90
18047;DHT22;9148;51.454;13.862;2023-09-19T01:48:57;15.70;99.90
18047;DHT22;9148;51.454;13.862;2023-09-19T01:51:41;15.70;99.90
18047;DHT22;9148;51.454;13.862;2023-09-19T01:54:12;15.70;99.90
18047;DHT22;9148;51.454;13.862;2023-09-19T01:57:40;15.70;99.90
18047;DHT22;9148;51.454;13.862;2023-09-19T02:00:07;15.70;99.90
18047;DHT22;9148;51.454;13.862;2023-09-19T02:02:47;15.70;99.90
18047;DHT22;9148;51.454;13.862;2023-09-19T02:05:13;15.70;99.90
18047;DHT22;9148;51.454;13.862;2023-09-19T02:07:39;15.70;99.90
18047;DHT22;9148;51.454;13.862;2023-09-19T02:10:06;15.60;99.90
18047;DHT22;9148;51.454;13.862;2023-09-19T02:12:33;15.70;99.90
18047;DHT22;9148;51.454;13.862;2023-09-19T02:14:59;15.70;99.90
18047;DHT22;9148;51.454;13.862;2023-09-19T02:17:25;15.60;99.90
18047;DHT22;9148;51.454;13.862;2023-09-19T02:19:52;15.60;99.90
18047;DHT22;9148;51.454;13.862;2023-09-19T02:22:18;15.70;99.90
18047;DHT22;9148;51.454;13.862;2023-09-19T02:24:44;15.60;99.90
18047;DHT22;9148;51.454;13.862;2023-09-19T02:27:11;15.60;99.90
18047;DHT22;9148;51.454;13.862;2023-09-19T02:29:39;15.60;99.90
18047;DHT22;9148;51.454;13.862;2023-09-19T02:32:06;15.70;99.90
18047;DHT22;9148;51.454;13.862;2023-09-19T02:34:32;15.70;99.90
18047;DHT22;9148;51.454;13.862;2023-09-19T02:36:58;15.60;99.90
18047;DHT22;9148;51.454;13.862;2023-09-19T02:39:23;15.70;99.90
18047;DHT22;9148;51.454;13.862;2023-09-19T02:41:49;15.70;99.90
18047;DHT22;9148;51.454;13.862;2023-09-19T02:44:15;15.70;99.90
18047;DHT22;9148;51.454;13.862;2023-09-19T02:46:41;15.70;99.90
18047;DHT22;9148;51.454;13.862;2023-09-19T02:49:07;15.70;99.90
18047;DHT22;9148;51.454;13.862;2023-09-19T02:51:33;15.70;99.90
18047;DHT22;9148;51.454;13.862;2023-09-19T02:54:00;15.70;99.90
18047;DHT22;9148;51.454;13.862;2023-09-19T02:56:26;15.70;99.90
18047;DHT22;9148;51.454;13.862;2023-09-19T02:58:52;15.70;99.90
18047;DHT22;9148;51.454;13.862;2023-09-19T03:01:18;15.70;99.90
18047;DHT22;9148;51.454;13.862;2023-09-19T03:03:44;15.70;99.90
18047;DHT22;9148;51.454;13.862;2023-09-19T03:06:10;15.80;99.90
18047;DHT22;9148;51.454;13.862;2023-09-19T03:08:38;15.80;99.90
18047;DHT22;9148;51.454;13.862;2023-09-19T03:11:05;15.80;99.90
18047;DHT22;9148;51.454;13.862;2023-09-19T03:13:32;15.80;99.90
18047;DHT22;9148;51.454;13.862;2023-09-19T03:15:58;15.80;99.90
18047;DHT22;9148;51.454;13.862;2023-09-19T03:18:24;15.80;99.90
18047;DHT22;9148;51.454;13.862;2023-09-19T03:20:55;15.90;99.90
18047;DHT22;9148;51.454;13.862;2023-09-19T03:23:22;15.90;99.90
18047;DHT22;9148;51.454;13.862;2023-09-19T03:25:47;16.00;99.90
18047;DHT22;9148;51.454;13.862;2023-09-19T03:28:13;16.10;99.90
18047;DHT22;9148;51.454;13.862;2023-09-19T03:30:40;16.10;99.90
18047;DHT22;9148;51.454;13.862;2023-09-19T03:33:06;16.20;99.90
18047;DHT22;9148;51.454;13.862;2023-09-19T03:35:32;16.30;99.90
18047;DHT22;9148;51.454;13.862;2023-09-19T03:37:57;16.30;99.90
18047;DHT22;9148;51.454;13.862;2023-09-19T03:40:23;16.40;99.90
18047;DHT22;9148;51.454;13.862;2023-09-19T03:42:49;16.40;99.90
18047;DHT22;9148;51.454;13.862;2023-09-19T03:45:14;16.40;99.90
18047;DHT22;9148;51.454;13.862;2023-09-19T03:47:41;16.40;99.90
18047;DHT22;9148;51.454;13.862;2023-09-19T03:50:08;16.40;99.90
18047;DHT22;9148;51.454;13.862;2023-09-19T03:52:36;16.40;99.90
18047;DHT22;9148;51.454;13.862;2023-09-19T03:55:01;16.40;99.90
18047;DHT22;9148;51.454;13.862;2023-09-19T03:57:30;16.40;99.90
18047;DHT22;9148;51.454;13.862;2023-09-19T03:59:56;16.50;99.90
18047;DHT22;9148;51.454;13.862;2023-09-19T04:02:23;16.50;99.90
18047;DHT22;9148;51.454;13.862;2023-09-19T04:04:52;16.50;99.90
18047;DHT22;9148;51.454;13.862;2023-09-19T04:07:18;16.50;99.90
18047;DHT22;9148;51.454;13.862;2023-09-19T04:09:45;16.50;99.90
18047;DHT22;9148;51.454;13.862;2023-09-19T04:12:11;16.50;99.90
18047;DHT22;9148;51.454;13.862;2023-09-19T04:14:43;16.50;99.90
18047;DHT22;9148;51.454;13.862;2023-09-19T04:17:08;16.50;99.90
18047;DHT22;9148;51.454;13.862;2023-09-19T04:19:35;16.50;99.90
18047;DHT22;9148;51.454;13.862;2023-09-19T04:22:01;16.60;99.90
18047;DHT22;9148;51.454;13.862;2023-09-19T04:24:27;16.60;99.90
18047;DHT22;9148;51.454;13.862;2023-09-19T04:26:52;16.60;99.90
18047;DHT22;9148;51.454;13.862;2023-09-19T04:29:18;16.60;99.90
18047;DHT22;9148;51.454;13.862;2023-09-19T04:31:44;16.50;99.90
18047;DHT22;9148;51.454;13.862;2023-09-19T04:34:11;16.60;99.90
18047;DHT22;9148;51.454;13.862;2023-09-19T04:36:43;16.60;99.90
18047;DHT22;9148;51.454;13.862;2023-09-19T04:39:09;16.60;99.90
18047;DHT22;9148;51.454;13.862;2023-09-19T04:41:36;16.60;99.90
18047;DHT22;9148;51.454;13.862;2023-09-19T04:44:06;16.60;99.90
18047;DHT22;9148;51.454;13.862;2023-09-19T04:46:33;16.50;99.90
18047;DHT22;9148;51.454;13.862;2023-09-19T04:48:59;16.60;99.90
18047;DHT22;9148;51.454;13.862;2023-09-19T04:51:26;16.50;99.90
18047;DHT22;9148;51.454;13.862;2023-09-19T04:53:54;16.50;99.90
18047;DHT22;9148;51.454;13.862;2023-09-19T04:56:20;16.50;99.90
18047;DHT22;9148;51.454;13.862;2023-09-19T04:58:46;16.50;99.90
18047;DHT22;9148;51.454;13.862;2023-09-19T05:01:12;16.50;99.90
18047;DHT22;9148;51.454;13.862;2023-09-19T05:03:40;16.50;99.90
18047;DHT22;9148;51.454;13.862;2023-09-19T05:06:06;16.50;99.90
18047;DHT22;9148;51.454;13.862;2023-09-19T05:08:31;16.50;99.90
18047;DHT22;9148;51.454;13.862;2023-09-19T05:10:57;16.50;99.90
18047;DHT22;9148;51.454;13.862;2023-09-19T05:13:23;16.50;99.90
18047;DHT22;9148;51.454;13.862;2023-09-19T05:15:49;16.50;99.90
18047;DHT22;9148;51.454;13.862;2023-09-19T05:18:15;16.50;99.90
18047;DHT22;9148;51.454;13.862;2023-09-19T05:20:41;16.50;99.90
18047;DHT22;9148;51.454;13.862;2023-09-19T05:23:07;16.50;99.90
18047;DHT22;9148;51.454;13.862;2023-09-19T05:25:35;16.60;99.90
18047;DHT22;9148;51.454;13.862;2023-09-19T05:28:06;16.60;99.90
18047;DHT22;9148;51.454;13.862;2023-09-19T05:30:33;16.60;99.90
18047;DHT22;9148;51.454;13.862;2023-09-19T05:33:04;16.60;99.90
18047;DHT22;9148;51.454;13.862;2023-09-19T05:35:31;16.70;99.90
18047;DHT22;9148;51.454;13.862;2023-09-19T05:37:57;16.70;99.90
18047;DHT22;9148;51.454;13.862;2023-09-19T05:40:24;16.70;99.90
18047;DHT22;9148;51.454;13.862;2023-09-19T05:42:50;16.70;99.90
18047;DHT22;9148;51.454;13.862;2023-09-19T05:45:16;16.70;99.90
18047;DHT22;9148;51.454;13.862;2023-09-19T05:47:51;16.80;99.90
18047;DHT22;9148;51.454;13.862;2023-09-19T05:50:21;16.80;99.90
18047;DHT22;9148;51.454;13.862;2023-09-19T05:52:52;16.80;99.90
18047;DHT22;9148;51.454;13.862;2023-09-19T05:55:18;16.80;99.90
18047;DHT22;9148;51.454;13.862;2023-09-19T05:57:49;16.80;99.90
18047;DHT22;9148;51.454;13.862;2023-09-19T06:00:19;16.80;99.90
18047;DHT22;9148;51.454;13.862;2023-09-19T06:02:50;16.90;99.90
18047;DHT22;9148;51.454;13.862;2023-09-19T06:05:16;16.90;99.90
18047;DHT22;9148;51.454;13.862;2023-09-19T06:07:42;16.90;99.90
18047;DHT22;9148;51.454;13.862;2023-09-19T06:10:08;16.90;99.90
18047;DHT22;9148;51.454;13.862;2023-09-19T06:12:38;17.00;99.90
18047;DHT22;9148;51.454;13.862;2023-09-19T06:15:05;17.00;99.90
18047;DHT22;9148;51.454;13.862;2023-09-19T06:17:34;17.00;99.90
18047;DHT22;9148;51.454;13.862;2023-09-19T06:20:05;17.10;99.90
18047;DHT22;9148;51.454;13.862;2023-09-19T06:22:38;17.10;99.90
18047;DHT22;9148;51.454;13.862;2023-09-19T06:25:05;17.10;99.90
18047;DHT22;9148;51.454;13.862;2023-09-19T06:27:31;17.20;99.90
18047;DHT22;9148;51.454;13.862;2023-09-19T06:29:56;17.20;99.90
18047;DHT22;9148;51.454;13.862;2023-09-19T06:32:28;17.30;99.90
18047;DHT22;9148;51.454;13.862;2023-09-19T06:34:54;17.30;99.90
18047;DHT22;9148;51.454;13.862;2023-09-19T06:37:20;17.40;99.90
18047;DHT22;9148;51.454;13.862;2023-09-19T06:39:47;17.50;99.90
18047;DHT22;9148;51.454;13.862;2023-09-19T06:42:15;17.50;99.90
18047;DHT22;9148;51.454;13.862;2023-09-19T06:44:42;17.60;99.90
18047;DHT22;9148;51.454;13.862;2023-09-19T06:47:08;17.70;99.90
18047;DHT22;9148;51.454;13.862;2023-09-19T06:49:36;17.90;99.90
18047;DHT22;9148;51.454;13.862;2023-09-19T06:52:02;17.80;99.90
18047;DHT22;9148;51.454;13.862;2023-09-19T06:54:28;17.90;99.90
18047;DHT22;9148;51.454;13.862;2023-09-19T06:56:59;18.00;99.90
18047;DHT22;9148;51.454;13.862;2023-09-19T06:59:25;18.10;99.90
18047;DHT22;9148;51.454;13.862;2023-09-19T07:01:50;18.20;99.90
18047;DHT22;9148;51.454;13.862;2023-09-19T07:04:16;18.30;99.90
18047;DHT22;9148;51.454;13.862;2023-09-19T07:06:50;18.40;99.90
18047;DHT22;9148;51.454;13.862;2023-09-19T07:09:16;18.50;99.90
18047;DHT22;9148;51.454;13.862;2023-09-19T07:11:43;18.60;99.90
18047;DHT22;9148;51.454;13.862;2023-09-19T07:14:10;18.70;99.90
18047;DHT22;9148;51.454;13.862;2023-09-19T07:16:38;18.90;99.90
18047;DHT22;9148;51.454;13.862;2023-09-19T07:19:05;19.00;99.90
18047;DHT22;9148;51.454;13.862;2023-09-19T07:21:31;19.10;99.90
18047;DHT22;9148;51.454;13.862;2023-09-19T07:23:59;19.30;99.90
18047;DHT22;9148;51.454;13.862;2023-09-19T07:26:26;19.60;99.90
18047;DHT22;9148;51.454;13.862;2023-09-19T07:28:53;19.80;99.90
18047;DHT22;9148;51.454;13.862;2023-09-19T07:31:19;19.90;99.90
18047;DHT22;9148;51.454;13.862;2023-09-19T07:33:45;20.10;99.90
18047;DHT22;9148;51.454;13.862;2023-09-19T07:36:11;20.20;99.90
18047;DHT22;9148;51.454;13.862;2023-09-19T07:38:41;20.30;99.90
18047;DHT22;9148;51.454;13.862;2023-09-19T07:41:07;20.40;99.90
18047;DHT22;9148;51.454;13.862;2023-09-19T07:43:35;20.60;99.90
18047;DHT22;9148;51.454;13.862;2023-09-19T07:46:05;20.70;99.90
18047;DHT22;9148;51.454;13.862;2023-09-19T07:48:33;20.90;99.90
18047;DHT22;9148;51.454;13.862;2023-09-19T07:51:06;20.90;99.90
18047;DHT22;9148;51.454;13.862;2023-09-19T07:53:33;20.90;99.90
18047;DHT22;9148;51.454;13.862;2023-09-19T07:56:08;21.00;99.90
18047;DHT22;9148;51.454;13.862;2023-09-19T07:58:35;21.00;99.90
18047;DHT22;9148;51.454;13.862;2023-09-19T08:01:08;21.00;99.30
18047;DHT22;9148;51.454;13.862;2023-09-19T08:03:34;21.20;99.10
18047;DHT22;9148;51.454;13.862;2023-09-19T08:06:00;21.30;99.20
18047;DHT22;9148;51.454;13.862;2023-09-19T08:08:27;21.40;98.90
18047;DHT22;9148;51.454;13.862;2023-09-19T08:10:54;21.60;98.20
18047;DHT22;9148;51.454;13.862;2023-09-19T08:13:25;21.70;97.50
18047;DHT22;9148;51.454;13.862;2023-09-19T08:15:51;21.70;96.70
18047;DHT22;9148;51.454;13.862;2023-09-19T08:18:19;21.70;96.70
18047;DHT22;9148;51.454;13.862;2023-09-19T08:20:51;21.80;96.50
18047;DHT22;9148;51.454;13.862;2023-09-19T08:23:18;22.00;96.80
18047;DHT22;9148;51.454;13.862;2023-09-19T08:25:48;22.30;95.40
18047;DHT22;9148;51.454;13.862;2023-09-19T08:28:14;22.40;94.90
18047;DHT22;9148;51.454;13.862;2023-09-19T08:30:47;22.60;94.60
18047;DHT22;9148;51.454;13.862;2023-09-19T08:33:13;22.70;92.40
18047;DHT22;9148;51.454;13.862;2023-09-19T08:35:40;22.70;92.40
18047;DHT22;9148;51.454;13.862;2023-09-19T08:38:09;22.70;91.70
18047;DHT22;9148;51.454;13.862;2023-09-19T08:40:39;22.60;91.80
18047;DHT22;9148;51.454;13.862;2023-09-19T08:43:06;22.60;91.20
18047;DHT22;9148;51.454;13.862;2023-09-19T08:45:33;22.70;90.80
18047;DHT22;9148;51.454;13.862;2023-09-19T08:51:03;22.80;90.40
18047;DHT22;9148;51.454;13.862;2023-09-19T08:54:03;22.90;88.00
18047;DHT22;9148;51.454;13.862;2023-09-19T08:56:33;23.10;87.40
18047;DHT22;9148;51.454;13.862;2023-09-19T08:59:06;23.20;84.80
18047;DHT22;9148;51.454;13.862;2023-09-19T09:01:36;23.30;82.50
18047;DHT22;9148;51.454;13.862;2023-09-19T09:04:08;23.40;81.30
18047;DHT22;9148;51.454;13.862;2023-09-19T09:06:34;23.40;81.00
18047;DHT22;9148;51.454;13.862;2023-09-19T09:09:02;23.20;79.70
18047;DHT22;9148;51.454;13.862;2023-09-19T09:11:28;23.10;80.00
18047;DHT22;9148;51.454;13.862;2023-09-19T09:13:54;22.90;79.50
18047;DHT22;9148;51.454;13.862;2023-09-19T09:16:20;22.90;79.10
18047;DHT22;9148;51.454;13.862;2023-09-19T09:18:46;22.80;78.90
18047;DHT22;9148;51.454;13.862;2023-09-19T09:21:17;22.90;78.40
18047;DHT22;9148;51.454;13.862;2023-09-19T09:23:43;23.00;78.20
18047;DHT22;9148;51.454;13.862;2023-09-19T09:26:09;23.20;78.70
18047;DHT22;9148;51.454;13.862;2023-09-19T09:28:35;23.40;76.80
18047;DHT22;9148;51.454;13.862;2023-09-19T09:31:04;23.40;76.10
18047;DHT22;9148;51.454;13.862;2023-09-19T09:33:38;23.30;76.00
18047;DHT22;9148;51.454;13.862;2023-09-19T09:36:05;23.10;76.40
18047;DHT22;9148;51.454;13.862;2023-09-19T09:38:47;22.90;76.50
18047;DHT22;9148;51.454;13.862;2023-09-19T09:41:36;22.90;78.20
18047;DHT22;9148;51.454;13.862;2023-09-19T09:44:16;23.00;77.80
18047;DHT22;9148;51.454;13.862;2023-09-19T09:46:46;23.10;76.40
18047;DHT22;9148;51.454;13.862;2023-09-19T09:49:23;23.20;76.10
18047;DHT22;9148;51.454;13.862;2023-09-19T09:54:28;23.80;76.30
18047;DHT22;9148;51.454;13.862;2023-09-19T09:57:10;24.00;73.20
18047;DHT22;9148;51.454;13.862;2023-09-19T09:59:58;24.20;70.00
18047;DHT22;9148;51.454;13.862;2023-09-19T10:02:35;24.20;70.70
18047;DHT22;9148;51.454;13.862;2023-09-19T10:05:16;24.10;69.00
18047;DHT22;9148;51.454;13.862;2023-09-19T10:07:53;23.80;67.70
18047;DHT22;9148;51.454;13.862;2023-09-19T10:10:48;23.50;68.30
18047;DHT22;9148;51.454;13.862;2023-09-19T10:13:30;23.30;69.40
18047;DHT22;9148;51.454;13.862;2023-09-19T10:15:58;23.30;70.20
18047;DHT22;9148;51.454;13.862;2023-09-19T10:18:27;23.40;69.40
18047;DHT22;9148;51.454;13.862;2023-09-19T10:20:56;23.60;69.60
18047;DHT22;9148;51.454;13.862;2023-09-19T10:23:22;23.80;68.50
18047;DHT22;9148;51.454;13.862;2023-09-19T10:25:52;24.00;68.00
18047;DHT22;9148;51.454;13.862;2023-09-19T10:28:20;24.20;66.70
18047;DHT22;9148;51.454;13.862;2023-09-19T10:30:57;24.30;67.00
18047;DHT22;9148;51.454;13.862;2023-09-19T10:33:24;24.40;66.30
18047;DHT22;9148;51.454;13.862;2023-09-19T10:35:58;24.60;66.30
18047;DHT22;9148;51.454;13.862;2023-09-19T10:38:26;24.50;66.50
18047;DHT22;9148;51.454;13.862;2023-09-19T10:40:55;24.40;67.10
18047;DHT22;9148;51.454;13.862;2023-09-19T10:43:33;24.40;68.10
18047;DHT22;9148;51.454;13.862;2023-09-19T10:46:02;24.60;67.10
18047;DHT22;9148;51.454;13.862;2023-09-19T10:48:31;24.70;65.80
18047;DHT22;9148;51.454;13.862;2023-09-19T10:51:03;24.80;63.50
18047;DHT22;9148;51.454;13.862;2023-09-19T10:53:42;24.70;60.30
18047;DHT22;9148;51.454;13.862;2023-09-19T10:56:33;24.60;61.00
18047;DHT22;9148;51.454;13.862;2023-09-19T10:59:09;24.60;61.80
18047;DHT22;9148;51.454;13.862;2023-09-19T11:01:55;24.60;60.10
18047;DHT22;9148;51.454;13.862;2023-09-19T11:04:32;24.30;59.50
18047;DHT22;9148;51.454;13.862;2023-09-19T11:07:06;24.10;59.80
18047;DHT22;9148;51.454;13.862;2023-09-19T11:09:53;23.90;60.30
18047;DHT22;9148;51.454;13.862;2023-09-19T11:14:57;23.90;61.60
18047;DHT22;9148;51.454;13.862;2023-09-19T11:17:33;24.00;60.40
18047;DHT22;9148;51.454;13.862;2023-09-19T11:30:31;25.30;57.70
18047;DHT22;9148;51.454;13.862;2023-09-19T11:33:26;25.50;56.30
18047;DHT22;9148;51.454;13.862;2023-09-19T11:36:10;25.60;55.00
18047;DHT22;9148;51.454;13.862;2023-09-19T11:43:52;25.60;48.10
18047;DHT22;9148;51.454;13.862;2023-09-19T11:46:21;25.50;46.20
18047;DHT22;9148;51.454;13.862;2023-09-19T11:48:48;25.50;46.70
18047;DHT22;9148;51.454;13.862;2023-09-19T11:51:20;25.50;46.50
18047;DHT22;9148;51.454;13.862;2023-09-19T11:53:58;25.60;46.80
18047;DHT22;9148;51.454;13.862;2023-09-19T11:56:27;25.70;46.60
18047;DHT22;9148;51.454;13.862;2023-09-19T11:58:54;25.80;45.90
18047;DHT22;9148;51.454;13.862;2023-09-19T12:01:31;25.80;44.50
18047;DHT22;9148;51.454;13.862;2023-09-19T12:04:01;25.80;44.20
18047;DHT22;9148;51.454;13.862;2023-09-19T12:06:30;25.80;44.10
18047;DHT22;9148;51.454;13.862;2023-09-19T12:08:57;25.70;42.40
18047;DHT22;9148;51.454;13.862;2023-09-19T12:11:28;25.40;42.80
18047;DHT22;9148;51.454;13.862;2023-09-19T12:13:59;25.40;43.30
18047;DHT22;9148;51.454;13.862;2023-09-19T12:16:26;25.30;42.90
18047;DHT22;9148;51.454;13.862;2023-09-19T12:18:56;25.30;41.70
18047;DHT22;9148;51.454;13.862;2023-09-19T12:21:24;25.30;42.30
18047;DHT22;9148;51.454;13.862;2023-09-19T12:24:03;25.30;42.80
18047;DHT22;9148;51.454;13.862;2023-09-19T12:26:45;25.30;42.30
18047;DHT22;9148;51.454;13.862;2023-09-19T12:29:20;25.20;42.80
18047;DHT22;9148;51.454;13.862;2023-09-19T12:31:51;25.20;42.70
18047;DHT22;9148;51.454;13.862;2023-09-19T12:34:32;25.20;42.70
18047;DHT22;9148;51.454;13.862;2023-09-19T12:37:10;25.20;42.70
18047;DHT22;9148;51.454;13.862;2023-09-19T12:39:38;25.20;42.90
18047;DHT22;9148;51.454;13.862;2023-09-19T12:42:10;25.20;42.50
18047;DHT22;9148;51.454;13.862;2023-09-19T12:44:37;25.10;41.40
18047;DHT22;9148;51.454;13.862;2023-09-19T12:47:16;25.00;41.30
18047;DHT22;9148;51.454;13.862;2023-09-19T12:50:07;24.90;41.60
18047;DHT22;9148;51.454;13.862;2023-09-19T12:52:40;24.80;41.70
18047;DHT22;9148;51.454;13.862;2023-09-19T12:55:07;24.80;42.20
18047;DHT22;9148;51.454;13.862;2023-09-19T12:57:34;24.90;42.70
18047;DHT22;9148;51.454;13.862;2023-09-19T13:00:04;24.90;42.60
18047;DHT22;9148;51.454;13.862;2023-09-19T13:02:37;25.10;43.10
18047;DHT22;9148;51.454;13.862;2023-09-19T13:05:03;25.30;42.90
18047;DHT22;9148;51.454;13.862;2023-09-19T13:07:45;25.40;43.30
18047;DHT22;9148;51.454;13.862;2023-09-19T13:10:14;25.50;43.50
18047;DHT22;9148;51.454;13.862;2023-09-19T13:12:43;25.60;43.30
18047;DHT22;9148;51.454;13.862;2023-09-19T13:15:14;25.70;42.50
18047;DHT22;9148;51.454;13.862;2023-09-19T13:17:46;25.60;42.90
18047;DHT22;9148;51.454;13.862;2023-09-19T13:20:26;25.40;43.30
18047;DHT22;9148;51.454;13.862;2023-09-19T13:22:57;25.30;44.10
18047;DHT22;9148;51.454;13.862;2023-09-19T13:25:25;25.20;44.70
18047;DHT22;9148;51.454;13.862;2023-09-19T13:27:54;25.30;44.50
18047;DHT22;9148;51.454;13.862;2023-09-19T13:30:22;25.20;45.00
18047;DHT22;9148;51.454;13.862;2023-09-19T13:33:03;25.30;45.30
18047;DHT22;9148;51.454;13.862;2023-09-19T13:35:31;25.30;45.00
18047;DHT22;9148;51.454;13.862;2023-09-19T13:37:58;25.30;45.20
18047;DHT22;9148;51.454;13.862;2023-09-19T13:40:24;25.20;44.60
18047;DHT22;9148;51.454;13.862;2023-09-19T13:43:00;25.20;45.20
18047;DHT22;9148;51.454;13.862;2023-09-19T13:45:26;25.20;45.80
18047;DHT22;9148;51.454;13.862;2023-09-19T13:47:56;25.40;45.70
18047;DHT22;9148;51.454;13.862;2023-09-19T13:50:21;25.40;45.40
18047;DHT22;9148;51.454;13.862;2023-09-19T13:52:50;25.40;45.20
18047;DHT22;9148;51.454;13.862;2023-09-19T13:55:19;25.40;45.20
18047;DHT22;9148;51.454;13.862;2023-09-19T13:57:49;25.40;45.80
18047;DHT22;9148;51.454;13.862;2023-09-19T14:00:24;25.30;45.30
18047;DHT22;9148;51.454;13.862;2023-09-19T14:02:50;25.20;45.30
18047;DHT22;9148;51.454;13.862;2023-09-19T14:05:16;25.20;45.50
18047;DHT22;9148;51.454;13.862;2023-09-19T14:07:45;25.10;46.00
18047;DHT22;9148;51.454;13.862;2023-09-19T14:10:12;25.00;46.20
18047;DHT22;9148;51.454;13.862;2023-09-19T14:12:38;25.00;45.90
18047;DHT22;9148;51.454;13.862;2023-09-19T14:15:09;25.00;46.20
18047;DHT22;9148;51.454;13.862;2023-09-19T14:17:37;25.00;46.40
18047;DHT22;9148;51.454;13.862;2023-09-19T14:20:03;25.10;46.30
18047;DHT22;9148;51.454;13.862;2023-09-19T14:22:31;25.10;46.10
18047;DHT22;9148;51.454;13.862;2023-09-19T14:24:57;25.10;46.50
18047;DHT22;9148;51.454;13.862;2023-09-19T14:27:25;25.10;46.50
18047;DHT22;9148;51.454;13.862;2023-09-19T14:29:50;25.10;46.80
18047;DHT22;9148;51.454;13.862;2023-09-19T14:32:16;25.10;47.10
18047;DHT22;9148;51.454;13.862;2023-09-19T14:34:43;25.20;47.00
18047;DHT22;9148;51.454;13.862;2023-09-19T14:37:09;25.20;46.90
18047;DHT22;9148;51.454;13.862;2023-09-19T14:39:36;25.20;46.50
18047;DHT22;9148;51.454;13.862;2023-09-19T14:42:04;25.20;46.90
18047;DHT22;9148;51.454;13.862;2023-09-19T14:44:29;25.00;46.70
18047;DHT22;9148;51.454;13.862;2023-09-19T14:46:55;24.90;46.60
18047;DHT22;9148;51.454;13.862;2023-09-19T14:49:21;24.80;46.90
18047;DHT22;9148;51.454;13.862;2023-09-19T14:51:47;24.70;47.10
18047;DHT22;9148;51.454;13.862;2023-09-19T14:54:14;24.50;47.30
18047;DHT22;9148;51.454;13.862;2023-09-19T14:56:42;24.40;47.40
18047;DHT22;9148;51.454;13.862;2023-09-19T14:59:08;24.20;47.80
18047;DHT22;9148;51.454;13.862;2023-09-19T15:01:36;24.20;48.20
18047;DHT22;9148;51.454;13.862;2023-09-19T15:04:02;24.10;48.60
18047;DHT22;9148;51.454;13.862;2023-09-19T15:06:28;24.10;48.90
18047;DHT22;9148;51.454;13.862;2023-09-19T15:08:53;24.10;49.10
18047;DHT22;9148;51.454;13.862;2023-09-19T15:11:20;24.10;49.20
18047;DHT22;9148;51.454;13.862;2023-09-19T15:13:47;24.10;49.00
18047;DHT22;9148;51.454;13.862;2023-09-19T15:16:13;24.10;49.20
18047;DHT22;9148;51.454;13.862;2023-09-19T15:18:43;24.00;49.40
18047;DHT22;9148;51.454;13.862;2023-09-19T15:21:12;23.90;49.40
18047;DHT22;9148;51.454;13.862;2023-09-19T15:23:40;23.80;49.50
18047;DHT22;9148;51.454;13.862;2023-09-19T15:26:08;23.80;49.70
18047;DHT22;9148;51.454;13.862;2023-09-19T15:28:35;23.80;49.90
18047;DHT22;9148;51.454;13.862;2023-09-19T15:31:04;23.70;49.90
18047;DHT22;9148;51.454;13.862;2023-09-19T15:33:32;23.70;50.10
18047;DHT22;9148;51.454;13.862;2023-09-19T15:36:04;23.10;49.90
18047;DHT22;9148;51.454;13.862;2023-09-19T15:38:56;23.50;50.30
18047;DHT22;9148;51.454;13.862;2023-09-19T15:41:25;23.40;50.60
18047;DHT22;9148;51.454;13.862;2023-09-19T15:44:03;23.30;50.90
18047;DHT22;9148;51.454;13.862;2023-09-19T15:46:33;23.10;51.10
18047;DHT22;9148;51.454;13.862;2023-09-19T15:49:00;23.00;51.40
18047;DHT22;9148;51.454;13.862;2023-09-19T15:51:26;22.90;51.70
18047;DHT22;9148;51.454;13.862;2023-09-19T15:53:53;23.10;52.00
18047;DHT22;9148;51.454;13.862;2023-09-19T15:56:21;22.80;52.00
18047;DHT22;9148;51.454;13.862;2023-09-19T15:58:49;22.80;52.20
18047;DHT22;9148;51.454;13.862;2023-09-19T16:01:16;22.70;52.40
18047;DHT22;9148;51.454;13.862;2023-09-19T16:03:46;22.70;52.60
18047;DHT22;9148;51.454;13.862;2023-09-19T16:06:14;22.60;52.60
18047;DHT22;9148;51.454;13.862;2023-09-19T16:08:48;22.60;52.70
18047;DHT22;9148;51.454;13.862;2023-09-19T16:11:14;22.50;53.10
18047;DHT22;9148;51.454;13.862;2023-09-19T16:13:42;22.40;53.30
18047;DHT22;9148;51.454;13.862;2023-09-19T16:16:08;22.30;53.50
18047;DHT22;9148;51.454;13.862;2023-09-19T16:18:38;22.30;53.80
18047;DHT22;9148;51.454;13.862;2023-09-19T16:21:06;22.20;54.00